Time;durP1;ratioP1;P1;durP2;ratioP2;P2;SDS_P1;SDS_P2;PMS_P1;PMS_P2;Temp;Humidity;BMP_temperature;BMP_pressure;BME280_temperature;BME280_humidity;BME280_pressure;Samples;Min_cycle;Max_cycle;Signal;HPM_P1;HPM_P2
2024/03/04 00:01:05;;;;;;;64.40;10.67;;;9.20;99.90;;;;;;5035369;28;20170;-69
2024/03/04 00:03:32;;;;;;;70.43;13.40;;;9.30;99.90;;;;;;5034887;28;20694;-69
2024/03/04 00:05:59;;;;;;;70.67;12.60;;;11.10;99.90;;;;;;5035218;28;20186;-70
2024/03/04 00:08:25;;;;;;;66.67;12.33;;;9.20;1.00;;;;;;5035315;28;20429;-70
2024/03/04 00:10:51;;;;;;;63.17;9.60;;;9.10;99.90;;;;;;5017375;28;20420;-70
2024/03/04 00:13:17;;;;;;;66.70;11.60;;;9.10;1.00;;;;;;5035002;28;20186;-69
2024/03/04 00:15:43;;;;;;;71.13;13.73;;;9.00;99.90;;;;;;5035187;28;20476;-70
2024/03/04 00:18:15;;;;;;;65.83;12.60;;;8.90;1.00;;;;;;5035029;28;20405;-69
2024/03/04 00:20:40;;;;;;;65.93;12.40;;;8.80;1.00;;;;;;5034924;28;20455;-69
2024/03/04 00:23:06;;;;;;;72.10;12.60;;;8.90;1.00;;;;;;5034457;28;20420;-69
2024/03/04 00:25:31;;;;;;;64.93;11.10;;;8.90;1.00;;;;;;5034863;28;20173;-69
2024/03/04 00:27:57;;;;;;;63.73;12.03;;;8.80;1.00;;;;;;5034653;28;20171;-69
2024/03/04 00:30:26;;;;;;;68.90;11.03;;;8.80;1.00;;;;;;5033783;28;20651;-69
2024/03/04 00:32:51;;;;;;;67.67;11.23;;;8.70;1.00;;;;;;5015145;28;20219;-69
2024/03/04 00:35:17;;;;;;;74.73;13.40;;;8.80;1.00;;;;;;5033948;28;21003;-70
2024/03/04 00:37:43;;;;;;;62.37;10.53;;;8.80;1.00;;;;;;5034785;28;20519;-70
2024/03/04 00:40:08;;;;;;;70.80;11.10;;;8.80;1.00;;;;;;5035006;28;20201;-70
2024/03/04 00:42:37;;;;;;;65.97;11.50;;;8.90;1.00;;;;;;5016518;28;20185;-70
2024/03/04 00:45:02;;;;;;;64.20;9.93;;;8.80;1.00;;;;;;5034582;28;20216;-69
2024/03/04 00:47:28;;;;;;;68.60;12.67;;;8.70;1.00;;;;;;5016726;28;20422;-70
2024/03/04 00:49:54;;;;;;;67.43;12.30;;;8.80;1.00;;;;;;5034658;28;20405;-70
2024/03/04 00:52:20;;;;;;;67.53;11.23;;;8.70;1.00;;;;;;5034494;28;20262;-70
2024/03/04 00:54:46;;;;;;;68.83;11.10;;;8.90;1.00;;;;;;5016447;28;20240;-70
2024/03/04 00:57:11;;;;;;;74.00;13.70;;;8.40;17.10;;;;;;5034392;28;20410;-70
2024/03/04 00:59:37;;;;;;;68.23;12.23;;;8.60;1.00;;;;;;5034317;28;20163;-71
2024/03/04 01:02:06;;;;;;;66.50;12.27;;;8.60;1.00;;;;;;5034235;28;20681;-70
2024/03/04 01:04:33;;;;;;;64.90;11.33;;;8.60;2.90;;;;;;5033933;28;20509;-70
2024/03/04 01:06:59;;;;;;;68.93;12.37;;;8.60;38.20;;;;;;5034032;28;21137;-70
2024/03/04 01:09:24;;;;;;;69.80;12.20;;;8.60;94.00;;;;;;5034101;28;20398;-70
2024/03/04 01:11:50;;;;;;;70.67;11.43;;;8.50;99.90;;;;;;5034010;28;20708;-71
2024/03/04 01:14:16;;;;;;;76.03;14.70;;;8.50;99.90;;;;;;5033563;28;20548;-71
2024/03/04 01:16:41;;;;;;;63.03;11.33;;;8.40;99.90;;;;;;5034027;28;20193;-70
2024/03/04 01:19:08;;;;;;;66.20;12.40;;;8.50;99.90;;;;;;5033904;28;20177;-69
2024/03/04 01:21:33;;;;;;;77.80;12.33;;;8.50;99.90;;;;;;5033883;28;20251;-69
2024/03/04 01:23:59;;;;;;;64.17;11.60;;;8.50;99.90;;;;;;5033407;28;20424;-70
2024/03/04 01:26:24;;;;;;;72.37;13.87;;;8.50;99.90;;;;;;5033648;28;20190;-70
2024/03/04 01:28:50;;;;;;;66.67;10.77;;;8.40;99.90;;;;;;5033662;28;20650;-71
2024/03/04 01:31:18;;;;;;;67.17;12.27;;;8.40;99.90;;;;;;5033602;28;20173;-71
2024/03/04 01:33:48;;;;;;;68.93;12.57;;;8.40;99.90;;;;;;5033170;28;20273;-71
2024/03/04 01:36:14;;;;;;;69.90;13.30;;;8.40;99.90;;;;;;5033800;28;20963;-71
2024/03/04 01:38:41;;;;;;;71.00;12.50;;;8.60;99.90;;;;;;5033520;28;20409;-69
2024/03/04 01:41:07;;;;;;;73.77;13.90;;;8.50;99.90;;;;;;5033556;28;20912;-71
2024/03/04 01:43:32;;;;;;;67.77;13.27;;;8.50;99.90;;;;;;5033063;28;20425;-71
2024/03/04 01:45:58;;;;;;;66.97;11.17;;;;;;;;;;5033357;28;20174;-70
2024/03/04 01:48:24;;;;;;;67.53;13.57;;;8.40;99.90;;;;;;5033390;28;20170;-70
2024/03/04 01:50:54;;;;;;;72.30;12.33;;;8.50;99.90;;;;;;5033268;28;20419;-70
2024/03/04 01:53:22;;;;;;;71.93;15.10;;;8.60;99.90;;;;;;5014933;28;20535;-70
2024/03/04 01:56:07;;;;;;;69.70;12.77;;;8.50;99.90;;;;;;5015405;28;21037;-70
2024/03/04 01:58:37;;;;;;;69.30;12.57;;;8.60;99.90;;;;;;5033190;28;20428;-69
2024/03/04 02:01:07;;;;;;;72.47;14.67;;;8.60;96.90;;;;;;5033102;28;20401;-70
2024/03/04 02:03:35;;;;;;;70.73;12.50;;;8.60;40.30;;;;;;5032627;28;20516;-70
2024/03/04 02:06:02;;;;;;;74.70;15.10;;;8.60;23.30;;;;;;5032880;28;20761;-70
2024/03/04 02:08:28;;;;;;;66.47;13.23;;;8.80;19.90;;;;;;5032879;28;20413;-69
2024/03/04 02:10:54;;;;;;;73.80;14.63;;;8.60;1.00;;;;;;5032792;28;20503;-70
2024/03/04 02:13:20;;;;;;;67.40;13.40;;;8.70;1.00;;;;;;5032375;28;20516;-70
2024/03/04 02:15:47;;;;;;;68.57;13.23;;;8.70;1.00;;;;;;5032806;28;20670;-70
2024/03/04 02:18:14;;;;;;;68.00;13.40;;;8.70;1.00;;;;;;5015050;28;20416;-71
2024/03/04 02:20:43;;;;;;;64.03;12.07;;;8.70;1.00;;;;;;5032725;28;20477;-70
2024/03/04 02:23:11;;;;;;;61.87;10.70;;;8.80;1.00;;;;;;5032194;28;20480;-70
2024/03/04 02:25:38;;;;;;;66.23;11.90;;;8.70;1.00;;;;;;5032566;28;20905;-70
2024/03/04 02:28:04;;;;;;;71.10;13.10;;;8.60;1.00;;;;;;5032579;28;20400;-70
2024/03/04 02:30:31;;;;;;;69.67;13.03;;;8.70;99.90;;;;;;5014732;28;21161;-70
2024/03/04 02:32:59;;;;;;;66.27;12.20;;;8.50;1.00;;;;;;5014197;28;20948;-70
2024/03/04 02:35:29;;;;;;;68.70;11.83;;;8.80;1.00;;;;;;5032387;28;20453;-70
2024/03/04 02:37:55;;;;;;;68.80;12.50;;;8.80;1.00;;;;;;5032528;28;20398;-69
2024/03/04 02:40:21;;;;;;;64.13;10.87;;;8.80;99.90;;;;;;5032416;28;20420;-71
2024/03/04 02:42:47;;;;;;;62.63;10.63;;;8.80;99.90;;;;;;5031982;28;20425;-70
2024/03/04 02:45:12;;;;;;;66.83;11.73;;;8.80;99.90;;;;;;5032384;28;20409;-70
2024/03/04 02:47:38;;;;;;;66.90;12.37;;;8.80;99.90;;;;;;5032304;28;20170;-70
2024/03/04 02:50:07;;;;;;;69.40;12.70;;;8.70;99.90;;;;;;5014453;28;20171;-70
2024/03/04 02:52:33;;;;;;;66.57;11.43;;;8.50;1.00;;;;;;5031638;28;20406;-69
2024/03/04 02:54:59;;;;;;;70.30;12.63;;;8.70;99.90;;;;;;5031749;28;20512;-70
2024/03/04 02:57:25;;;;;;;66.23;13.43;;;8.70;1.00;;;;;;5032273;28;20401;-70
2024/03/04 02:59:51;;;;;;;64.97;9.67;;;8.70;99.90;;;;;;5032189;28;20803;-70
2024/03/04 03:02:17;;;;;;;66.57;10.67;;;8.80;1.00;;;;;;5031762;28;20174;-70
2024/03/04 03:04:43;;;;;;;65.20;10.80;;;8.70;99.90;;;;;;5031937;28;20197;-70
2024/03/04 03:07:09;;;;;;;66.73;12.17;;;8.70;1.00;;;;;;5032022;28;20801;-70
2024/03/04 03:09:34;;;;;;;61.33;10.40;;;8.60;99.90;;;;;;5032033;28;20406;-69
2024/03/04 03:12:00;;;;;;;65.23;10.87;;;8.60;99.90;;;;;;5032095;28;20201;-70
2024/03/04 03:14:26;;;;;;;61.53;9.80;;;8.50;99.90;;;;;;5031577;28;20233;-70
2024/03/04 03:16:52;;;;;;;69.67;11.17;;;8.50;99.90;;;;;;5031910;28;20401;-70
2024/03/04 03:19:25;;;;;;;66.30;12.57;;;8.50;99.90;;;;;;5031893;28;20894;-70
2024/03/04 03:21:52;;;;;;;67.70;11.63;;;8.50;99.90;;;;;;5031904;28;20520;-69
2024/03/04 03:24:21;;;;;;;68.00;12.33;;;8.50;99.90;;;;;;5031452;28;20535;-69
2024/03/04 03:26:47;;;;;;;65.20;11.10;;;8.40;99.90;;;;;;5031867;28;20899;-70
2024/03/04 03:29:16;;;;;;;71.33;14.20;;;8.40;1.00;;;;;;5014143;28;20409;-69
2024/03/04 03:31:42;;;;;;;70.80;13.77;;;8.30;1.00;;;;;;5031829;28;20416;-70
2024/03/04 03:34:08;;;;;;;74.53;14.47;;;8.30;1.00;;;;;;5031374;28;20423;-70
2024/03/04 03:36:38;;;;;;;66.70;12.00;;;8.40;1.00;;;;;;5031766;28;20165;-70
2024/03/04 03:39:04;;;;;;;73.27;14.00;;;8.40;30.20;;;;;;5031735;28;20403;-69
2024/03/04 03:41:30;;;;;;;75.53;14.13;;;8.30;1.00;;;;;;5031639;28;20422;-70
2024/03/04 03:43:56;;;;;;;68.60;12.30;;;8.40;1.00;;;;;;5031256;28;20425;-70
2024/03/04 03:46:22;;;;;;;69.57;12.23;;;8.60;44.80;;;;;;5013854;28;20436;-70
2024/03/04 03:48:47;;;;;;;68.10;12.97;;;8.50;4.30;;;;;;5031651;28;20175;-71
2024/03/04 03:51:13;;;;;;;69.87;12.83;;;8.30;23.00;;;;;;5031652;28;20174;-70
2024/03/04 03:53:38;;;;;;;72.23;10.70;;;8.30;1.00;;;;;;5031388;28;20243;-69
2024/03/04 03:56:05;;;;;;;66.70;13.30;;;8.40;1.00;;;;;;5031805;28;20286;-69
2024/03/04 03:58:30;;;;;;;69.03;12.53;;;8.30;1.00;;;;;;5031636;28;20172;-69
2024/03/04 04:00:56;;;;;;;68.00;13.07;;;8.30;99.90;;;;;;5031534;28;20458;-69
2024/03/04 04:03:22;;;;;;;63.10;11.20;;;8.30;99.90;;;;;;5031193;28;20181;-70
2024/03/04 04:05:48;;;;;;;73.10;11.47;;;8.30;99.90;;;;;;5032483;28;20256;-69
2024/03/04 04:08:13;;;;;;;65.10;12.43;;;8.30;99.90;;;;;;5036259;28;20188;-70
2024/03/04 04:10:39;;;;;;;70.63;13.20;;;8.30;99.90;;;;;;5036097;28;20412;-69
2024/03/04 04:13:05;;;;;;;66.07;11.20;;;8.30;1.00;;;;;;5034773;28;20713;-69
2024/03/04 04:15:31;;;;;;;62.03;9.53;;;8.40;99.90;;;;;;5034974;28;20257;-69
2024/03/04 04:17:57;;;;;;;67.97;12.23;;;8.60;99.90;;;;;;5035045;28;20404;-69
2024/03/04 04:20:23;;;;;;;67.97;12.60;;;8.50;99.90;;;;;;5017249;28;20985;-70
2024/03/04 04:22:50;;;;;;;66.83;10.70;;;8.50;52.50;;;;;;5034969;28;20818;-69
2024/03/04 04:25:16;;;;;;;68.90;10.90;;;8.40;7.20;;;;;;5035484;28;20931;-69
2024/03/04 04:27:42;;;;;;;67.37;11.27;;;8.40;99.90;;;;;;5035066;28;20417;-69
2024/03/04 04:30:09;;;;;;;66.60;10.23;;;8.30;99.90;;;;;;5034824;28;20412;-69
2024/03/04 04:32:35;;;;;;;65.00;11.03;;;8.20;36.10;;;;;;5034451;28;20413;-69
2024/03/04 04:35:03;;;;;;;63.60;11.63;;;8.30;71.20;;;;;;5034695;28;20445;-69
2024/03/04 04:37:29;;;;;;;69.60;12.50;;;8.40;99.90;;;;;;5034670;28;20408;-69
2024/03/04 04:39:55;;;;;;;61.73;10.70;;;8.30;99.90;;;;;;5034660;28;20400;-69
2024/03/04 04:42:22;;;;;;;69.47;11.50;;;8.30;99.90;;;;;;5034222;28;20864;-69
2024/03/04 04:44:48;;;;;;;66.27;11.37;;;8.20;99.90;;;;;;5034720;28;20492;-69
2024/03/04 04:47:14;;;;;;;62.20;9.27;;;8.30;99.90;;;;;;5034898;28;20487;-69
2024/03/04 04:49:40;;;;;;;67.40;12.07;;;8.20;99.90;;;;;;5034419;28;20500;-69
2024/03/04 04:52:05;;;;;;;67.37;11.27;;;8.20;99.90;;;;;;5034403;28;20441;-70
2024/03/04 04:54:31;;;;;;;68.27;12.40;;;8.10;99.90;;;;;;5048716;22;20308;-74
2024/03/04 04:56:57;;;;;;;67.90;10.83;;;8.20;99.90;;;;;;5034374;28;20170;-74
2024/03/04 04:59:22;;;;;;;66.97;13.60;;;8.10;99.90;;;;;;5034268;28;20165;-74
2024/03/04 05:01:48;;;;;;;68.47;10.93;;;8.10;99.90;;;;;;5034173;28;20176;-73
2024/03/04 05:04:14;;;;;;;68.13;11.80;;;8.10;99.90;;;;;;5033752;28;20193;-74
2024/03/04 05:06:39;;;;;;;67.93;12.90;;;8.00;99.90;;;;;;5034053;28;20176;-73
2024/03/04 05:09:06;;;;;;;65.20;11.50;;;8.10;99.90;;;;;;5034024;28;20413;-74
2024/03/04 05:11:32;;;;;;;67.50;12.20;;;8.00;99.90;;;;;;5033844;28;20169;-73
2024/03/04 05:13:59;;;;;;;66.37;12.80;;;8.30;99.90;;;;;;5033510;28;20427;-73
2024/03/04 05:16:25;;;;;;;74.60;12.40;;;8.00;99.90;;;;;;5033570;28;20480;-73
2024/03/04 05:18:53;;;;;;;64.90;9.77;;;8.00;99.90;;;;;;5033693;28;20417;-73
2024/03/04 05:21:18;;;;;;;62.27;9.87;;;8.10;99.90;;;;;;5033782;28;20175;-73
2024/03/04 05:23:44;;;;;;;65.10;9.60;;;8.10;99.90;;;;;;5033420;28;20433;-73
2024/03/04 05:26:09;;;;;;;64.80;10.67;;;7.90;99.90;;;;;;5033719;28;20494;-74
2024/03/04 05:28:35;;;;;;;63.57;9.90;;;8.00;99.90;;;;;;5033631;28;20175;-74
2024/03/04 05:31:01;;;;;;;66.60;10.63;;;7.90;99.90;;;;;;5033588;28;20170;-73
2024/03/04 05:33:26;;;;;;;59.53;8.17;;;8.00;99.90;;;;;;5033193;28;20190;-73
2024/03/04 05:35:52;;;;;;;70.30;10.37;;;8.00;99.90;;;;;;5033587;28;20280;-73
2024/03/04 05:38:17;;;;;;;65.77;9.27;;;8.00;99.90;;;;;;5033499;28;20671;-73
2024/03/04 05:40:46;;;;;;;67.17;11.93;;;8.00;99.90;;;;;;5033426;28;20319;-73
2024/03/04 05:43:12;;;;;;;64.70;9.63;;;8.00;99.90;;;;;;5033130;28;20178;-73
2024/03/04 05:45:38;;;;;;;61.53;9.10;;;8.00;99.90;;;;;;5033428;28;20404;-73
2024/03/04 05:48:05;;;;;;;62.97;10.13;;;8.10;99.90;;;;;;5033239;28;20424;-73
2024/03/04 05:50:31;;;;;;;64.57;10.63;;;8.10;99.90;;;;;;5033245;28;20407;-74
2024/03/04 05:52:56;;;;;;;64.37;12.10;;;7.90;99.90;;;;;;5032916;28;20763;-74
2024/03/04 05:55:22;;;;;;;64.27;10.77;;;7.80;99.90;;;;;;5032909;28;20237;-73
2024/03/04 05:57:47;;;;;;;72.40;10.37;;;8.00;99.90;;;;;;5033279;28;20175;-72
2024/03/04 06:00:14;;;;;;;64.17;12.10;;;8.00;99.90;;;;;;5033089;28;20428;-71
2024/03/04 06:02:43;;;;;;;66.53;11.63;;;8.00;99.90;;;;;;5032762;28;20248;-70
2024/03/04 06:05:13;;;;;;;64.17;11.40;;;8.00;99.90;;;;;;5032898;28;20939;-70
2024/03/04 06:07:43;;;;;;;65.23;11.00;;;7.90;99.90;;;;;;5032848;28;20423;-72
2024/03/04 06:10:09;;;;;;;67.97;10.47;;;8.00;99.90;;;;;;5033066;28;20424;-71
2024/03/04 06:12:35;;;;;;;63.97;10.93;;;8.00;99.90;;;;;;5032508;28;20457;-70
2024/03/04 06:15:01;;;;;;;64.47;9.40;;;7.90;99.90;;;;;;5032592;28;20459;-73
2024/03/04 06:17:29;;;;;;;59.47;8.67;;;7.90;99.90;;;;;;5032670;28;20583;-71
2024/03/04 06:19:55;;;;;;;63.00;10.67;;;7.90;99.90;;;;;;5032676;28;20416;-72
2024/03/04 06:22:21;;;;;;;67.77;10.27;;;7.90;99.90;;;;;;5032980;28;20885;-72
2024/03/04 06:24:46;;;;;;;80.43;13.30;;;7.70;99.90;;;;;;5032754;28;20191;-71
2024/03/04 06:27:12;;;;;;;71.17;12.33;;;7.80;99.90;;;;;;5032348;28;20248;-70
2024/03/04 06:29:37;;;;;;;66.07;12.20;;;7.80;99.90;;;;;;5031835;28;20184;-73
2024/03/04 06:32:04;;;;;;;66.63;10.27;;;7.80;99.90;;;;;;5032509;28;20171;-72
2024/03/04 06:34:30;;;;;;;65.00;10.93;;;7.80;99.90;;;;;;5031239;28;20211;-72
2024/03/04 06:36:57;;;;;;;64.37;11.70;;;7.80;99.90;;;;;;5031424;28;20491;-73
2024/03/04 06:39:23;;;;;;;66.90;11.90;;;7.90;99.90;;;;;;5031243;28;20469;-72
2024/03/04 06:41:52;;;;;;;69.63;11.43;;;7.90;99.90;;;;;;5031762;28;20400;-70
2024/03/04 06:44:18;;;;;;;66.60;10.00;;;7.90;99.90;;;;;;5031799;28;20428;-70
2024/03/04 06:46:44;;;;;;;64.67;10.30;;;7.80;99.90;;;;;;5032539;28;20476;-70
2024/03/04 06:49:10;;;;;;;68.00;10.47;;;7.80;99.90;;;;;;5032214;28;20416;-72
2024/03/04 06:51:36;;;;;;;63.50;9.93;;;7.90;99.90;;;;;;5032175;28;20409;-70
2024/03/04 06:54:06;;;;;;;61.27;9.57;;;7.80;99.90;;;;;;5031726;28;20447;-70
2024/03/04 06:56:36;;;;;;;74.07;10.80;;;7.80;99.90;;;;;;5032032;28;20448;-72
2024/03/04 06:59:02;;;;;;;67.10;13.67;;;7.80;99.90;;;;;;5032218;28;20409;-71
2024/03/04 07:01:27;;;;;;;67.27;10.77;;;7.80;99.90;;;;;;5032063;28;20412;-71
2024/03/04 07:03:54;;;;;;;66.43;9.33;;;7.80;99.90;;;;;;5031752;28;20436;-71
2024/03/04 07:06:20;;;;;;;67.23;10.80;;;7.90;99.90;;;;;;5031873;28;20570;-72
2024/03/04 07:08:46;;;;;;;67.67;10.00;;;7.90;99.90;;;;;;5031945;28;20415;-72
2024/03/04 07:11:13;;;;;;;62.00;10.03;;;7.80;99.90;;;;;;5031981;28;20538;-71
2024/03/04 07:13:40;;;;;;;64.00;9.87;;;7.90;99.90;;;;;;5031515;28;20192;-70
2024/03/04 07:16:07;;;;;;;69.43;10.63;;;7.90;99.90;;;;;;5031769;28;20517;-71
2024/03/04 07:18:36;;;;;;;60.20;8.93;;;7.90;99.90;;;;;;5031742;28;20404;-72
2024/03/04 07:21:01;;;;;;;60.93;8.87;;;7.90;99.90;;;;;;5031836;28;20431;-71
2024/03/04 07:23:27;;;;;;;60.00;9.63;;;7.90;99.90;;;;;;5031720;28;20461;-72
2024/03/04 07:25:53;;;;;;;59.77;9.20;;;7.80;99.90;;;;;;5031964;28;20185;-70
2024/03/04 07:28:22;;;;;;;62.10;10.00;;;7.80;99.90;;;;;;5031824;28;20853;-70
2024/03/04 07:30:51;;;;;;;60.83;9.47;;;7.80;99.90;;;;;;5031746;28;20397;-71
2024/03/04 07:33:17;;;;;;;61.37;9.60;;;7.90;99.90;;;;;;5031255;28;20795;-71
2024/03/04 07:35:45;;;;;;;69.33;11.93;;;7.80;99.90;;;;;;5031520;28;20552;-70
2024/03/04 07:38:10;;;;;;;62.50;9.83;;;8.00;99.90;;;;;;5031679;28;20169;-71
2024/03/04 07:40:36;;;;;;;63.97;9.50;;;8.00;99.90;;;;;;5033489;28;20483;-73
2024/03/04 07:43:02;;;;;;;68.13;10.60;;;8.40;99.90;;;;;;5035322;28;20706;-71
2024/03/04 07:45:28;;;;;;;61.23;9.90;;;8.00;99.90;;;;;;5035503;28;20174;-70
2024/03/04 07:47:55;;;;;;;66.47;10.30;;;8.00;99.90;;;;;;5035491;28;20486;-71
2024/03/04 07:50:21;;;;;;;58.47;8.97;;;8.00;99.90;;;;;;5035723;28;20911;-72
2024/03/04 07:52:48;;;;;;;61.17;10.50;;;7.80;99.90;;;;;;5035092;28;20496;-72
2024/03/04 07:55:17;;;;;;;59.63;8.93;;;8.00;99.90;;;;;;5035168;28;20298;-71
2024/03/04 07:57:46;;;;;;;61.53;9.50;;;8.00;99.90;;;;;;5034963;28;20440;-71
2024/03/04 08:00:15;;;;;;;67.87;10.97;;;8.00;99.90;;;;;;5035313;28;20539;-70
2024/03/04 08:02:42;;;;;;;58.93;8.20;;;8.00;99.90;;;;;;5034294;28;20502;-70
2024/03/04 08:05:08;;;;;;;59.57;9.13;;;8.00;99.90;;;;;;5035189;28;20429;-70
2024/03/04 08:07:34;;;;;;;66.37;10.10;;;8.10;99.90;;;;;;5035227;28;20420;-70
2024/03/04 08:10:00;;;;;;;63.17;9.40;;;8.10;99.90;;;;;;5035179;28;20444;-70
2024/03/04 08:12:25;;;;;;;57.60;7.63;;;8.20;99.90;;;;;;5034850;28;20171;-71
2024/03/04 08:14:53;;;;;;;60.17;8.17;;;8.10;99.90;;;;;;5034785;28;20206;-71
2024/03/04 08:17:19;;;;;;;61.37;9.37;;;8.20;99.90;;;;;;5035048;28;20170;-72
2024/03/04 08:19:48;;;;;;;60.30;8.33;;;8.10;99.90;;;;;;5034970;28;20466;-71
2024/03/04 08:22:13;;;;;;;63.53;6.93;;;8.20;99.90;;;;;;5034752;28;20173;-72
2024/03/04 08:24:42;;;;;;;59.93;7.47;;;8.20;99.90;;;;;;5034834;28;20439;-72
2024/03/04 08:27:07;;;;;;;60.50;8.50;;;8.20;99.90;;;;;;5034702;28;20722;-72
2024/03/04 08:29:34;;;;;;;59.10;7.30;;;8.30;99.90;;;;;;5034527;28;20512;-71
2024/03/04 08:32:00;;;;;;;58.57;8.13;;;8.40;99.90;;;;;;5034568;28;20201;-71
2024/03/04 08:34:27;;;;;;;61.00;7.57;;;8.40;99.90;;;;;;5033833;28;20439;-70
2024/03/04 08:36:52;;;;;;;58.80;7.60;;;8.60;99.90;;;;;;5034698;28;20496;-70
2024/03/04 08:39:18;;;;;;;59.80;7.50;;;8.50;99.90;;;;;;5034553;28;20848;-70
2024/03/04 08:41:45;;;;;;;62.77;7.47;;;8.60;99.90;;;;;;5034488;28;20193;-73
2024/03/04 08:44:13;;;;;;;62.00;7.77;;;8.60;99.90;;;;;;5034203;28;20873;-72
2024/03/04 08:46:39;;;;;;;58.77;6.67;;;8.60;99.90;;;;;;5034379;28;20446;-71
2024/03/04 08:49:07;;;;;;;58.90;7.53;;;8.50;99.90;;;;;;5034568;28;20412;-70
2024/03/04 08:51:33;;;;;;;62.13;9.40;;;8.40;99.90;;;;;;5033687;28;20180;-70
2024/03/04 08:53:59;;;;;;;59.30;7.47;;;8.50;99.90;;;;;;5033722;28;20452;-72
2024/03/04 08:56:24;;;;;;;60.80;8.60;;;8.50;99.90;;;;;;5034147;28;20240;-72
2024/03/04 08:58:50;;;;;;;60.87;8.03;;;8.50;99.90;;;;;;5034473;28;20230;-72
2024/03/04 09:01:20;;;;;;;59.00;7.93;;;8.50;99.90;;;;;;5034197;28;20163;-72
2024/03/04 09:03:52;;;;;;;68.50;8.53;;;8.50;99.90;;;;;;5033856;28;20448;-72
2024/03/04 09:06:19;;;;;;;58.57;7.70;;;8.50;99.90;;;;;;5034187;28;20404;-71
2024/03/04 09:08:44;;;;;;;60.97;7.90;;;8.50;99.90;;;;;;5033971;28;20461;-71
2024/03/04 09:11:10;;;;;;;58.47;7.83;;;8.60;99.90;;;;;;5034125;28;20418;-72
2024/03/04 09:13:36;;;;;;;61.60;8.67;;;8.60;99.90;;;;;;5033795;28;20684;-71
2024/03/04 09:16:08;;;;;;;62.00;8.30;;;8.60;99.90;;;;;;5033838;28;20197;-71
2024/03/04 09:18:33;;;;;;;63.43;12.80;;;8.60;99.90;;;;;;5033963;28;20408;-72
2024/03/04 09:21:00;;;;;;;64.57;9.80;;;8.50;99.90;;;;;;5033971;28;21094;-72
2024/03/04 09:23:26;;;;;;;60.47;9.37;;;8.30;99.90;;;;;;5033482;28;20189;-72
2024/03/04 09:25:52;;;;;;;64.37;9.57;;;8.20;99.90;;;;;;5034001;28;20795;-70
2024/03/04 09:28:20;;;;;;;60.30;9.60;;;8.30;99.90;;;;;;5033921;28;20499;-72
2024/03/04 09:30:46;;;;;;;61.87;8.73;;;8.30;99.90;;;;;;5033909;28;20255;-71
2024/03/04 09:33:11;;;;;;;65.03;10.27;;;8.20;99.90;;;;;;5032898;28;20460;-73
2024/03/04 09:35:38;;;;;;;62.57;8.20;;;8.30;99.90;;;;;;5029158;28;20598;-72
2024/03/04 09:38:04;;;;;;;60.90;8.73;;;8.30;99.90;;;;;;5024669;28;20256;-71
2024/03/04 09:40:30;;;;;;;60.10;9.40;;;8.30;99.90;;;;;;5023225;28;20403;-72
2024/03/04 09:42:57;;;;;;;59.47;8.50;;;8.20;99.90;;;;;;5030217;28;20408;-71
2024/03/04 09:45:26;;;;;;;57.90;8.60;;;8.30;99.90;;;;;;5033476;28;20786;-70
2024/03/04 09:47:55;;;;;;;57.90;7.20;;;8.40;99.90;;;;;;5033355;28;20445;-70
2024/03/04 09:50:22;;;;;;;60.70;8.37;;;8.40;99.90;;;;;;5033242;28;20408;-71
2024/03/04 09:52:51;;;;;;;59.20;7.50;;;8.20;99.90;;;;;;5032792;28;20412;-70
2024/03/04 09:55:17;;;;;;;57.07;7.13;;;8.30;99.90;;;;;;5033028;28;20464;-72
2024/03/04 09:57:44;;;;;;;59.40;8.07;;;8.40;99.90;;;;;;5033377;28;20404;-72
2024/03/04 10:00:14;;;;;;;59.43;7.33;;;8.40;99.90;;;;;;5033129;28;20240;-72
2024/03/04 10:02:48;;;;;;;59.77;7.23;;;8.50;99.90;;;;;;5032689;28;20404;-72
2024/03/04 10:05:14;;;;;;;59.47;8.43;;;8.50;99.90;;;;;;5032129;28;20414;-71
2024/03/04 10:07:40;;;;;;;58.13;5.90;;;8.50;99.90;;;;;;5033003;28;20412;-73
2024/03/04 10:10:09;;;;;;;57.37;6.20;;;8.50;99.90;;;;;;5033086;28;20174;-69
2024/03/04 10:12:34;;;;;;;63.20;7.00;;;8.50;99.90;;;;;;5032552;28;20411;-70
2024/03/04 10:15:06;;;;;;;61.87;8.30;;;8.40;99.90;;;;;;5032666;28;21162;-70
2024/03/04 10:17:31;;;;;;;56.93;6.80;;;8.40;99.90;;;;;;5032636;28;20412;-72
2024/03/04 10:20:02;;;;;;;58.17;7.57;;;8.40;99.90;;;;;;5032717;28;20414;-71
2024/03/04 10:22:39;;;;;;;58.30;7.50;;;8.30;99.90;;;;;;5032508;28;20220;-72
2024/03/04 10:25:10;;;;;;;56.80;7.27;;;8.40;99.90;;;;;;5032534;28;20481;-70
2024/03/04 10:27:37;;;;;;;57.60;6.80;;;8.40;99.90;;;;;;5032644;28;20771;-70
2024/03/04 10:30:12;;;;;;;55.20;5.70;;;8.40;99.90;;;;;;5032517;28;20478;-72
2024/03/04 10:32:39;;;;;;;58.67;6.30;;;8.40;99.90;;;;;;5032463;28;20980;-71
2024/03/04 10:35:05;;;;;;;56.53;5.40;;;8.40;99.90;;;;;;5032496;28;20478;-72
2024/03/04 10:37:32;;;;;;;57.07;5.80;;;8.50;99.90;;;;;;5031664;28;20409;-70
2024/03/04 10:39:58;;;;;;;55.00;5.27;;;8.50;99.90;;;;;;5032391;28;20405;-71
2024/03/04 10:42:24;;;;;;;56.97;6.70;;;8.70;99.90;;;;;;5032004;28;20415;-72
2024/03/04 10:44:51;;;;;;;57.83;5.50;;;8.70;99.90;;;;;;5032237;28;20517;-71
2024/03/04 10:47:19;;;;;;;60.20;6.10;;;8.80;99.90;;;;;;5032389;28;20255;-70
2024/03/04 10:49:45;;;;;;;58.73;6.03;;;8.70;99.90;;;;;;5032118;28;20409;-70
2024/03/04 10:52:12;;;;;;;61.90;6.27;;;8.70;99.90;;;;;;5032186;28;20470;-72
2024/03/04 10:54:38;;;;;;;58.23;6.10;;;8.70;99.90;;;;;;5028652;28;20214;-72
2024/03/04 10:57:18;;;;;;;57.07;6.70;;;8.70;99.90;;;;;;5027412;28;20417;-71
2024/03/04 10:59:47;;;;;;;59.20;6.90;;;8.80;99.90;;;;;;5031902;28;20168;-70
2024/03/04 11:02:19;;;;;;;55.17;5.97;;;8.90;99.60;;;;;;5040971;28;20428;-69
2024/03/04 11:04:48;;;;;;;57.90;6.13;;;8.90;98.30;;;;;;5034075;28;20432;-68
2024/03/04 11:07:16;;;;;;;56.67;5.90;;;8.80;98.60;;;;;;5033346;28;20422;-71
2024/03/04 11:09:46;;;;;;;57.70;6.60;;;8.90;97.30;;;;;;5036289;28;20418;-69
2024/03/04 11:12:17;;;;;;;55.47;5.27;;;9.00;96.80;;;;;;5037368;28;20417;-69
2024/03/04 11:14:56;;;;;;;55.70;4.90;;;9.00;99.90;;;;;;5031553;28;20787;-70
2024/03/04 11:17:32;;;;;;;53.87;4.87;;;9.30;99.90;;;;;;5031362;28;21105;-70
2024/03/04 11:19:58;;;;;;;56.47;5.43;;;9.50;96.00;;;;;;5033192;28;20413;-69
2024/03/04 11:22:25;;;;;;;55.57;6.00;;;9.50;86.80;;;;;;5030844;28;20416;-70
2024/03/04 11:24:54;;;;;;;56.30;6.23;;;9.60;79.60;;;;;;5013485;28;20439;-69
2024/03/04 11:27:22;;;;;;;54.17;4.67;;;9.60;80.10;;;;;;5031792;28;20440;-69
2024/03/04 11:29:49;;;;;;;54.47;6.10;;;9.50;88.70;;;;;;5031680;28;20959;-69
2024/03/04 11:32:29;;;;;;;56.83;5.77;;;9.60;89.10;;;;;;5030131;28;20410;-68
2024/03/04 11:35:10;;;;;;;54.43;5.20;;;9.80;82.00;;;;;;5023455;28;20455;-71
2024/03/04 11:37:51;;;;;;;56.13;5.27;;;9.60;75.80;;;;;;5026495;28;20413;-68
2024/03/04 11:40:24;;;;;;;55.30;5.33;;;9.50;79.80;;;;;;5037485;28;20403;-69
2024/03/04 11:42:52;;;;;;;54.90;5.23;;;9.30;92.70;;;;;;5036024;28;20402;-69
2024/03/04 11:45:21;;;;;;;59.03;5.50;;;9.50;81.80;;;;;;5031230;28;20398;-68
2024/03/04 11:47:49;;;;;;;54.67;5.83;;;9.60;87.80;;;;;;5030584;28;20414;-69
2024/03/04 11:50:39;;;;;;;54.73;5.83;;;9.70;91.40;;;;;;5037362;28;20438;-68
2024/03/04 11:53:28;;;;;;;57.77;6.47;;;9.40;97.80;;;;;;5030238;28;20410;-69
2024/03/04 11:55:54;;;;;;;55.57;6.13;;;9.80;91.40;;;;;;5031012;28;20466;-68
2024/03/04 11:58:21;;;;;;;54.47;5.60;;;9.60;89.30;;;;;;5032984;28;20773;-69
2024/03/04 12:00:51;;;;;;;54.47;4.57;;;9.60;82.90;;;;;;5030906;28;20409;-70
2024/03/04 12:03:17;;;;;;;54.00;5.00;;;9.50;78.00;;;;;;5030222;28;21032;-68
2024/03/04 12:05:43;;;;;;;56.80;6.80;;;9.70;69.80;;;;;;5031114;28;20477;-69
2024/03/04 12:08:09;;;;;;;55.30;5.77;;;9.60;71.20;;;;;;5030195;28;20414;-69
2024/03/04 12:10:34;;;;;;;55.77;5.47;;;9.70;71.90;;;;;;5024395;28;20414;-69
2024/03/04 12:13:01;;;;;;;55.80;5.47;;;9.70;89.90;;;;;;5030192;28;20183;-68
2024/03/04 12:15:27;;;;;;;54.47;4.60;;;9.90;67.50;;;;;;5032470;28;20446;-68
2024/03/04 12:17:53;;;;;;;53.90;4.97;;;9.90;75.60;;;;;;5030490;28;20413;-69
2024/03/04 12:20:19;;;;;;;54.90;4.70;;;10.10;63.60;;;;;;5030822;28;20405;-69
2024/03/04 12:22:45;;;;;;;56.70;5.00;;;10.10;53.20;;;;;;5030038;28;20979;-70
2024/03/04 12:25:11;;;;;;;55.17;5.60;;;10.10;50.10;;;;;;5030054;28;20434;-68
2024/03/04 12:27:41;;;;;;;57.13;5.10;;;10.10;41.70;;;;;;5032587;28;20171;-68
2024/03/04 12:30:16;;;;;;;53.53;4.37;;;10.00;48.30;;;;;;5034694;28;20476;-68
2024/03/04 12:32:45;;;;;;;55.40;4.80;;;10.10;63.30;;;;;;5033266;28;20437;-69
2024/03/04 12:35:19;;;;;;;53.80;4.83;;;10.20;62.60;;;;;;5033849;28;20453;-69
2024/03/04 12:37:49;;;;;;;54.50;4.93;;;10.10;45.50;;;;;;5034515;28;20772;-70
2024/03/04 12:40:19;;;;;;;56.23;5.50;;;10.10;61.30;;;;;;5034105;28;20413;-69
2024/03/04 12:42:51;;;;;;;55.40;4.80;;;10.10;61.60;;;;;;5033537;28;20406;-70